sensor_id;sensor_type;location;lat;lon;timestamp;P1;durP1;ratioP1;P2;durP2;ratioP2
20731;SDS011;10527;52.124;5.196;2023-06-22T00:00:01;2.40;;;1.80;;
20731;SDS011;10527;52.124;5.196;2023-06-22T00:02:34;3.28;;;2.22;;
20731;SDS011;10527;52.124;5.196;2023-06-22T00:05:01;2.20;;;1.85;;
20731;SDS011;10527;52.124;5.196;2023-06-22T00:07:28;2.40;;;1.90;;
20731;SDS011;10527;52.124;5.196;2023-06-22T00:09:54;2.65;;;2.00;;
20731;SDS011;10527;52.124;5.196;2023-06-22T00:12:21;2.53;;;1.90;;
20731;SDS011;10527;52.124;5.196;2023-06-22T00:14:48;2.30;;;1.80;;
20731;SDS011;10527;52.124;5.196;2023-06-22T00:17:18;2.78;;;1.52;;
20731;SDS011;10527;52.124;5.196;2023-06-22T00:19:46;2.85;;;2.00;;
20731;SDS011;10527;52.124;5.196;2023-06-22T00:22:19;4.05;;;2.10;;
20731;SDS011;10527;52.124;5.196;2023-06-22T00:24:55;1.90;;;1.65;;
20731;SDS011;10527;52.124;5.196;2023-06-22T00:27:23;3.10;;;2.20;;
20731;SDS011;10527;52.124;5.196;2023-06-22T00:29:50;2.97;;;2.50;;
20731;SDS011;10527;52.124;5.196;2023-06-22T00:32:20;3.45;;;2.33;;
20731;SDS011;10527;52.124;5.196;2023-06-22T00:34:46;2.47;;;2.28;;
20731;SDS011;10527;52.124;5.196;2023-06-22T00:37:14;3.38;;;2.35;;
20731;SDS011;10527;52.124;5.196;2023-06-22T00:39:41;4.40;;;2.47;;
20731;SDS011;10527;52.124;5.196;2023-06-22T00:42:11;4.00;;;2.67;;
20731;SDS011;10527;52.124;5.196;2023-06-22T00:44:38;3.35;;;2.13;;
20731;SDS011;10527;52.124;5.196;2023-06-22T00:47:04;3.28;;;2.53;;
20731;SDS011;10527;52.124;5.196;2023-06-22T00:49:32;2.95;;;2.20;;
20731;SDS011;10527;52.124;5.196;2023-06-22T00:51:59;3.83;;;2.45;;
20731;SDS011;10527;52.124;5.196;2023-06-22T00:54:26;4.70;;;3.00;;
20731;SDS011;10527;52.124;5.196;2023-06-22T00:56:55;3.75;;;3.10;;
20731;SDS011;10527;52.124;5.196;2023-06-22T00:59:23;3.30;;;2.88;;
20731;SDS011;10527;52.124;5.196;2023-06-22T01:01:52;2.85;;;2.40;;
20731;SDS011;10527;52.124;5.196;2023-06-22T01:04:19;8.07;;;2.85;;
20731;SDS011;10527;52.124;5.196;2023-06-22T01:06:50;2.55;;;2.17;;
20731;SDS011;10527;52.124;5.196;2023-06-22T01:09:48;2.97;;;2.60;;
20731;SDS011;10527;52.124;5.196;2023-06-22T01:12:44;4.25;;;2.75;;
20731;SDS011;10527;52.124;5.196;2023-06-22T01:15:20;3.05;;;2.45;;
20731;SDS011;10527;52.124;5.196;2023-06-22T01:17:54;2.38;;;2.03;;
20731;SDS011;10527;52.124;5.196;2023-06-22T01:20:26;2.55;;;2.00;;
20731;SDS011;10527;52.124;5.196;2023-06-22T01:26:08;2.75;;;2.00;;
20731;SDS011;10527;52.124;5.196;2023-06-22T01:28:57;2.72;;;2.38;;
20731;SDS011;10527;52.124;5.196;2023-06-22T01:31:27;3.10;;;2.47;;
20731;SDS011;10527;52.124;5.196;2023-06-22T01:33:57;3.25;;;2.65;;
20731;SDS011;10527;52.124;5.196;2023-06-22T01:36:29;4.30;;;2.88;;
20731;SDS011;10527;52.124;5.196;2023-06-22T01:38:59;4.45;;;3.00;;
20731;SDS011;10527;52.124;5.196;2023-06-22T01:41:28;3.80;;;2.90;;
20731;SDS011;10527;52.124;5.196;2023-06-22T01:43:57;4.97;;;2.83;;
20731;SDS011;10527;52.124;5.196;2023-06-22T01:46:27;4.60;;;3.15;;
20731;SDS011;10527;52.124;5.196;2023-06-22T01:48:55;4.30;;;3.00;;
20731;SDS011;10527;52.124;5.196;2023-06-22T01:51:22;3.13;;;2.47;;
20731;SDS011;10527;52.124;5.196;2023-06-22T01:53:49;4.32;;;2.90;;
20731;SDS011;10527;52.124;5.196;2023-06-22T01:56:16;3.28;;;2.85;;
20731;SDS011;10527;52.124;5.196;2023-06-22T01:58:54;4.13;;;3.22;;
20731;SDS011;10527;52.124;5.196;2023-06-22T02:01:41;5.00;;;2.80;;
20731;SDS011;10527;52.124;5.196;2023-06-22T02:04:19;3.97;;;2.47;;
20731;SDS011;10527;52.124;5.196;2023-06-22T02:06:55;5.00;;;3.15;;
20731;SDS011;10527;52.124;5.196;2023-06-22T02:09:25;3.63;;;2.80;;
20731;SDS011;10527;52.124;5.196;2023-06-22T02:11:57;4.00;;;3.28;;
20731;SDS011;10527;52.124;5.196;2023-06-22T02:14:26;4.25;;;3.15;;
20731;SDS011;10527;52.124;5.196;2023-06-22T02:16:53;4.95;;;2.90;;
20731;SDS011;10527;52.124;5.196;2023-06-22T02:19:32;3.00;;;2.58;;
20731;SDS011;10527;52.124;5.196;2023-06-22T02:22:02;3.47;;;2.78;;
20731;SDS011;10527;52.124;5.196;2023-06-22T02:24:32;3.88;;;2.85;;
20731;SDS011;10527;52.124;5.196;2023-06-22T02:26:59;5.25;;;3.22;;
20731;SDS011;10527;52.124;5.196;2023-06-22T02:29:28;4.70;;;3.20;;
20731;SDS011;10527;52.124;5.196;2023-06-22T02:31:55;4.32;;;3.33;;
20731;SDS011;10527;52.124;5.196;2023-06-22T02:34:22;3.55;;;3.05;;
20731;SDS011;10527;52.124;5.196;2023-06-22T02:36:49;4.38;;;3.45;;
20731;SDS011;10527;52.124;5.196;2023-06-22T02:39:23;5.45;;;3.40;;
20731;SDS011;10527;52.124;5.196;2023-06-22T02:41:54;6.10;;;2.80;;
20731;SDS011;10527;52.124;5.196;2023-06-22T02:44:21;4.57;;;3.00;;
20731;SDS011;10527;52.124;5.196;2023-06-22T02:46:49;5.00;;;3.15;;
20731;SDS011;10527;52.124;5.196;2023-06-22T02:49:16;4.13;;;3.17;;
20731;SDS011;10527;52.124;5.196;2023-06-22T02:51:47;3.67;;;2.85;;
20731;SDS011;10527;52.124;5.196;2023-06-22T02:54:14;3.90;;;3.50;;
20731;SDS011;10527;52.124;5.196;2023-06-22T02:56:42;5.47;;;3.45;;
20731;SDS011;10527;52.124;5.196;2023-06-22T02:59:12;3.78;;;3.38;;
20731;SDS011;10527;52.124;5.196;2023-06-22T03:01:39;4.57;;;3.03;;
20731;SDS011;10527;52.124;5.196;2023-06-22T03:04:07;4.60;;;3.65;;
20731;SDS011;10527;52.124;5.196;2023-06-22T03:06:38;5.97;;;3.53;;
20731;SDS011;10527;52.124;5.196;2023-06-22T03:09:07;5.85;;;3.70;;
20731;SDS011;10527;52.124;5.196;2023-06-22T03:11:34;8.15;;;4.30;;
20731;SDS011;10527;52.124;5.196;2023-06-22T03:14:01;4.05;;;3.38;;
20731;SDS011;10527;52.124;5.196;2023-06-22T03:16:28;5.65;;;3.78;;
20731;SDS011;10527;52.124;5.196;2023-06-22T03:18:55;5.05;;;3.63;;
20731;SDS011;10527;52.124;5.196;2023-06-22T03:21:22;4.68;;;3.20;;
20731;SDS011;10527;52.124;5.196;2023-06-22T03:23:53;6.38;;;4.00;;
20731;SDS011;10527;52.124;5.196;2023-06-22T03:26:20;5.38;;;3.88;;
20731;SDS011;10527;52.124;5.196;2023-06-22T03:28:47;4.50;;;3.50;;
20731;SDS011;10527;52.124;5.196;2023-06-22T03:31:14;4.60;;;3.47;;
20731;SDS011;10527;52.124;5.196;2023-06-22T03:33:41;4.93;;;3.60;;
20731;SDS011;10527;52.124;5.196;2023-06-22T03:36:08;6.32;;;3.75;;
20731;SDS011;10527;52.124;5.196;2023-06-22T03:38:35;5.13;;;3.85;;
20731;SDS011;10527;52.124;5.196;2023-06-22T03:41:02;6.05;;;3.97;;
20731;SDS011;10527;52.124;5.196;2023-06-22T03:43:28;7.30;;;3.90;;
20731;SDS011;10527;52.124;5.196;2023-06-22T03:45:55;5.50;;;4.40;;
20731;SDS011;10527;52.124;5.196;2023-06-22T03:48:22;7.88;;;4.75;;
20731;SDS011;10527;52.124;5.196;2023-06-22T03:50:49;5.70;;;4.15;;
20731;SDS011;10527;52.124;5.196;2023-06-22T03:53:16;6.22;;;4.80;;
20731;SDS011;10527;52.124;5.196;2023-06-22T03:55:49;7.03;;;4.93;;
20731;SDS011;10527;52.124;5.196;2023-06-22T03:58:18;4.78;;;3.97;;
20731;SDS011;10527;52.124;5.196;2023-06-22T04:00:47;6.30;;;4.97;;
20731;SDS011;10527;52.124;5.196;2023-06-22T04:03:18;7.70;;;4.75;;
20731;SDS011;10527;52.124;5.196;2023-06-22T04:05:46;7.35;;;5.93;;
20731;SDS011;10527;52.124;5.196;2023-06-22T04:08:14;7.20;;;5.82;;
20731;SDS011;10527;52.124;5.196;2023-06-22T04:10:42;9.52;;;6.82;;
20731;SDS011;10527;52.124;5.196;2023-06-22T04:13:09;8.48;;;6.80;;
20731;SDS011;10527;52.124;5.196;2023-06-22T04:15:36;8.70;;;7.20;;
20731;SDS011;10527;52.124;5.196;2023-06-22T04:18:03;7.55;;;6.30;;
20731;SDS011;10527;52.124;5.196;2023-06-22T04:23:02;12.00;;;7.60;;
20731;SDS011;10527;52.124;5.196;2023-06-22T04:25:31;12.38;;;6.88;;
20731;SDS011;10527;52.124;5.196;2023-06-22T04:27:58;10.57;;;8.27;;
20731;SDS011;10527;52.124;5.196;2023-06-22T04:30:25;8.90;;;7.38;;
20731;SDS011;10527;52.124;5.196;2023-06-22T04:32:52;10.82;;;7.57;;
20731;SDS011;10527;52.124;5.196;2023-06-22T04:35:24;10.93;;;8.20;;
20731;SDS011;10527;52.124;5.196;2023-06-22T04:37:52;10.30;;;7.82;;
20731;SDS011;10527;52.124;5.196;2023-06-22T04:40:22;11.07;;;7.43;;
20731;SDS011;10527;52.124;5.196;2023-06-22T04:42:49;9.45;;;7.68;;
20731;SDS011;10527;52.124;5.196;2023-06-22T04:45:20;10.00;;;7.75;;
20731;SDS011;10527;52.124;5.196;2023-06-22T04:47:47;9.50;;;7.53;;
20731;SDS011;10527;52.124;5.196;2023-06-22T04:50:15;10.30;;;7.75;;
20731;SDS011;10527;52.124;5.196;2023-06-22T04:52:45;12.55;;;8.13;;
20731;SDS011;10527;52.124;5.196;2023-06-22T04:55:12;10.07;;;8.13;;
20731;SDS011;10527;52.124;5.196;2023-06-22T04:57:44;10.45;;;8.07;;
20731;SDS011;10527;52.124;5.196;2023-06-22T05:00:15;12.07;;;8.48;;
20731;SDS011;10527;52.124;5.196;2023-06-22T05:02:49;15.00;;;8.73;;
20731;SDS011;10527;52.124;5.196;2023-06-22T05:05:16;12.43;;;8.75;;
20731;SDS011;10527;52.124;5.196;2023-06-22T05:07:44;9.73;;;8.32;;
20731;SDS011;10527;52.124;5.196;2023-06-22T05:10:14;11.70;;;9.18;;
20731;SDS011;10527;52.124;5.196;2023-06-22T05:12:41;10.35;;;7.93;;
20731;SDS011;10527;52.124;5.196;2023-06-22T05:15:09;12.73;;;8.95;;
20731;SDS011;10527;52.124;5.196;2023-06-22T05:17:37;13.80;;;9.65;;
20731;SDS011;10527;52.124;5.196;2023-06-22T05:20:10;11.93;;;9.48;;
20731;SDS011;10527;52.124;5.196;2023-06-22T05:22:39;13.02;;;10.27;;
20731;SDS011;10527;52.124;5.196;2023-06-22T05:25:07;12.27;;;9.63;;
20731;SDS011;10527;52.124;5.196;2023-06-22T05:27:37;12.48;;;10.80;;
20731;SDS011;10527;52.124;5.196;2023-06-22T05:30:06;12.68;;;11.05;;
20731;SDS011;10527;52.124;5.196;2023-06-22T05:32:35;13.90;;;11.25;;
20731;SDS011;10527;52.124;5.196;2023-06-22T05:35:03;13.82;;;9.75;;
20731;SDS011;10527;52.124;5.196;2023-06-22T05:37:33;15.15;;;11.20;;
20731;SDS011;10527;52.124;5.196;2023-06-22T05:40:00;13.57;;;10.60;;
20731;SDS011;10527;52.124;5.196;2023-06-22T05:42:27;17.02;;;12.57;;
20731;SDS011;10527;52.124;5.196;2023-06-22T05:44:54;14.75;;;11.88;;
20731;SDS011;10527;52.124;5.196;2023-06-22T05:47:21;14.40;;;11.45;;
20731;SDS011;10527;52.124;5.196;2023-06-22T05:49:49;14.73;;;11.82;;
20731;SDS011;10527;52.124;5.196;2023-06-22T05:52:16;16.30;;;12.10;;
20731;SDS011;10527;52.124;5.196;2023-06-22T05:54:43;14.38;;;11.88;;
20731;SDS011;10527;52.124;5.196;2023-06-22T05:57:10;15.57;;;12.25;;
20731;SDS011;10527;52.124;5.196;2023-06-22T05:59:37;15.20;;;12.52;;
20731;SDS011;10527;52.124;5.196;2023-06-22T06:02:04;16.65;;;12.57;;
20731;SDS011;10527;52.124;5.196;2023-06-22T06:04:33;20.10;;;14.10;;
20731;SDS011;10527;52.124;5.196;2023-06-22T06:07:00;18.33;;;13.93;;
20731;SDS011;10527;52.124;5.196;2023-06-22T06:09:31;18.05;;;12.32;;
20731;SDS011;10527;52.124;5.196;2023-06-22T06:11:58;16.73;;;12.93;;
20731;SDS011;10527;52.124;5.196;2023-06-22T06:14:25;14.52;;;11.30;;
20731;SDS011;10527;52.124;5.196;2023-06-22T06:16:52;18.08;;;14.60;;
20731;SDS011;10527;52.124;5.196;2023-06-22T06:19:18;15.73;;;12.73;;
20731;SDS011;10527;52.124;5.196;2023-06-22T06:21:45;17.23;;;14.88;;
20731;SDS011;10527;52.124;5.196;2023-06-22T06:24:12;18.70;;;13.65;;
20731;SDS011;10527;52.124;5.196;2023-06-22T06:26:39;16.92;;;13.25;;
20731;SDS011;10527;52.124;5.196;2023-06-22T06:29:09;17.00;;;13.65;;
20731;SDS011;10527;52.124;5.196;2023-06-22T06:31:35;19.10;;;14.90;;
20731;SDS011;10527;52.124;5.196;2023-06-22T06:34:02;18.77;;;13.50;;
20731;SDS011;10527;52.124;5.196;2023-06-22T06:36:29;18.42;;;13.98;;
20731;SDS011;10527;52.124;5.196;2023-06-22T06:38:56;22.08;;;15.52;;
20731;SDS011;10527;52.124;5.196;2023-06-22T06:41:23;18.92;;;13.95;;
20731;SDS011;10527;52.124;5.196;2023-06-22T06:43:50;16.90;;;12.77;;
20731;SDS011;10527;52.124;5.196;2023-06-22T06:46:18;17.65;;;13.23;;
20731;SDS011;10527;52.124;5.196;2023-06-22T06:48:45;16.65;;;14.50;;
20731;SDS011;10527;52.124;5.196;2023-06-22T06:51:12;16.80;;;13.00;;
20731;SDS011;10527;52.124;5.196;2023-06-22T06:53:39;13.20;;;11.48;;
20731;SDS011;10527;52.124;5.196;2023-06-22T06:56:06;15.70;;;12.30;;
20731;SDS011;10527;52.124;5.196;2023-06-22T06:58:33;15.35;;;12.30;;
20731;SDS011;10527;52.124;5.196;2023-06-22T07:01:00;15.35;;;11.90;;
20731;SDS011;10527;52.124;5.196;2023-06-22T07:03:27;14.02;;;11.10;;
20731;SDS011;10527;52.124;5.196;2023-06-22T07:05:54;14.30;;;11.95;;
20731;SDS011;10527;52.124;5.196;2023-06-22T07:08:21;13.43;;;11.18;;
20731;SDS011;10527;52.124;5.196;2023-06-22T07:10:48;15.05;;;12.05;;
20731;SDS011;10527;52.124;5.196;2023-06-22T07:13:14;15.38;;;12.40;;
20731;SDS011;10527;52.124;5.196;2023-06-22T07:15:41;13.82;;;10.85;;
20731;SDS011;10527;52.124;5.196;2023-06-22T07:18:08;14.82;;;11.40;;
20731;SDS011;10527;52.124;5.196;2023-06-22T07:20:35;14.07;;;11.85;;
20731;SDS011;10527;52.124;5.196;2023-06-22T07:23:02;14.77;;;12.07;;
20731;SDS011;10527;52.124;5.196;2023-06-22T07:25:29;13.02;;;11.05;;
20731;SDS011;10527;52.124;5.196;2023-06-22T07:27:57;12.20;;;10.90;;
20731;SDS011;10527;52.124;5.196;2023-06-22T07:30:28;12.27;;;10.38;;
20731;SDS011;10527;52.124;5.196;2023-06-22T07:33:00;14.40;;;10.50;;
20731;SDS011;10527;52.124;5.196;2023-06-22T07:35:34;14.60;;;11.63;;
20731;SDS011;10527;52.124;5.196;2023-06-22T07:38:01;13.00;;;11.23;;
20731;SDS011;10527;52.124;5.196;2023-06-22T07:40:31;15.57;;;11.27;;
20731;SDS011;10527;52.124;5.196;2023-06-22T07:43:00;12.90;;;10.75;;
20731;SDS011;10527;52.124;5.196;2023-06-22T07:45:27;12.95;;;10.63;;
20731;SDS011;10527;52.124;5.196;2023-06-22T07:47:54;12.85;;;9.45;;
20731;SDS011;10527;52.124;5.196;2023-06-22T07:50:21;9.82;;;7.97;;
20731;SDS011;10527;52.124;5.196;2023-06-22T07:52:48;11.77;;;9.48;;
20731;SDS011;10527;52.124;5.196;2023-06-22T07:55:15;12.00;;;8.95;;
20731;SDS011;10527;52.124;5.196;2023-06-22T07:57:42;11.60;;;10.05;;
20731;SDS011;10527;52.124;5.196;2023-06-22T08:00:09;9.40;;;8.32;;
20731;SDS011;10527;52.124;5.196;2023-06-22T08:02:41;12.65;;;8.90;;
20731;SDS011;10527;52.124;5.196;2023-06-22T08:05:13;10.07;;;9.02;;
20731;SDS011;10527;52.124;5.196;2023-06-22T08:07:59;11.07;;;8.82;;
20731;SDS011;10527;52.124;5.196;2023-06-22T08:10:26;9.68;;;8.20;;
20731;SDS011;10527;52.124;5.196;2023-06-22T08:12:53;9.90;;;8.70;;
20731;SDS011;10527;52.124;5.196;2023-06-22T08:15:20;10.55;;;8.20;;
20731;SDS011;10527;52.124;5.196;2023-06-22T08:17:48;9.85;;;7.78;;
20731;SDS011;10527;52.124;5.196;2023-06-22T08:20:15;12.00;;;7.88;;
20731;SDS011;10527;52.124;5.196;2023-06-22T08:22:42;13.18;;;8.52;;
20731;SDS011;10527;52.124;5.196;2023-06-22T08:25:10;10.63;;;7.85;;
20731;SDS011;10527;52.124;5.196;2023-06-22T08:27:37;10.27;;;8.00;;
20731;SDS011;10527;52.124;5.196;2023-06-22T08:30:06;9.90;;;6.47;;
20731;SDS011;10527;52.124;5.196;2023-06-22T08:32:37;7.40;;;5.38;;
20731;SDS011;10527;52.124;5.196;2023-06-22T08:35:04;7.65;;;5.55;;
20731;SDS011;10527;52.124;5.196;2023-06-22T08:37:34;7.00;;;5.70;;
20731;SDS011;10527;52.124;5.196;2023-06-22T08:40:03;8.50;;;6.40;;
20731;SDS011;10527;52.124;5.196;2023-06-22T08:42:37;8.30;;;5.15;;
20731;SDS011;10527;52.124;5.196;2023-06-22T08:45:06;7.18;;;4.68;;
20731;SDS011;10527;52.124;5.196;2023-06-22T08:47:34;7.15;;;5.25;;
20731;SDS011;10527;52.124;5.196;2023-06-22T08:50:01;6.30;;;4.55;;
20731;SDS011;10527;52.124;5.196;2023-06-22T08:52:30;5.40;;;4.13;;
20731;SDS011;10527;52.124;5.196;2023-06-22T08:54:57;7.72;;;5.25;;
20731;SDS011;10527;52.124;5.196;2023-06-22T08:57:24;6.55;;;4.00;;
20731;SDS011;10527;52.124;5.196;2023-06-22T08:59:52;6.38;;;4.13;;
20731;SDS011;10527;52.124;5.196;2023-06-22T09:02:19;5.28;;;4.32;;
20731;SDS011;10527;52.124;5.196;2023-06-22T09:04:46;5.38;;;3.42;;
20731;SDS011;10527;52.124;5.196;2023-06-22T09:07:13;4.55;;;3.30;;
20731;SDS011;10527;52.124;5.196;2023-06-22T09:09:40;6.13;;;3.63;;
20731;SDS011;10527;52.124;5.196;2023-06-22T09:12:07;5.63;;;3.47;;
20731;SDS011;10527;52.124;5.196;2023-06-22T09:14:34;6.63;;;3.55;;
20731;SDS011;10527;52.124;5.196;2023-06-22T09:17:01;6.30;;;4.07;;
20731;SDS011;10527;52.124;5.196;2023-06-22T09:19:28;4.50;;;3.33;;
20731;SDS011;10527;52.124;5.196;2023-06-22T09:21:55;4.85;;;3.92;;
20731;SDS011;10527;52.124;5.196;2023-06-22T09:24:22;4.43;;;3.40;;
20731;SDS011;10527;52.124;5.196;2023-06-22T09:26:49;6.35;;;4.28;;
20731;SDS011;10527;52.124;5.196;2023-06-22T09:29:16;8.13;;;5.10;;
20731;SDS011;10527;52.124;5.196;2023-06-22T09:31:43;5.25;;;3.88;;
20731;SDS011;10527;52.124;5.196;2023-06-22T09:34:10;6.25;;;3.30;;
20731;SDS011;10527;52.124;5.196;2023-06-22T09:36:37;4.82;;;3.42;;
20731;SDS011;10527;52.124;5.196;2023-06-22T09:39:05;6.38;;;4.60;;
20731;SDS011;10527;52.124;5.196;2023-06-22T09:41:33;4.45;;;3.22;;
20731;SDS011;10527;52.124;5.196;2023-06-22T09:43:59;6.57;;;3.47;;
20731;SDS011;10527;52.124;5.196;2023-06-22T09:46:26;5.28;;;4.43;;
20731;SDS011;10527;52.124;5.196;2023-06-22T09:48:54;4.93;;;3.92;;
20731;SDS011;10527;52.124;5.196;2023-06-22T09:51:22;4.47;;;3.92;;
20731;SDS011;10527;52.124;5.196;2023-06-22T09:53:50;4.07;;;2.70;;
20731;SDS011;10527;52.124;5.196;2023-06-22T09:56:18;3.45;;;2.30;;
20731;SDS011;10527;52.124;5.196;2023-06-22T09:58:45;3.75;;;2.40;;
20731;SDS011;10527;52.124;5.196;2023-06-22T10:01:13;3.13;;;2.33;;
20731;SDS011;10527;52.124;5.196;2023-06-22T10:03:44;3.90;;;3.00;;
20731;SDS011;10527;52.124;5.196;2023-06-22T10:06:11;5.00;;;2.95;;
20731;SDS011;10527;52.124;5.196;2023-06-22T10:08:38;6.13;;;3.30;;
20731;SDS011;10527;52.124;5.196;2023-06-22T10:11:06;4.15;;;2.95;;
20731;SDS011;10527;52.124;5.196;2023-06-22T10:13:33;4.97;;;4.22;;
20731;SDS011;10527;52.124;5.196;2023-06-22T10:16:00;6.53;;;3.85;;
20731;SDS011;10527;52.124;5.196;2023-06-22T10:18:27;5.85;;;3.22;;
20731;SDS011;10527;52.124;5.196;2023-06-22T10:20:54;4.18;;;3.60;;
20731;SDS011;10527;52.124;5.196;2023-06-22T10:23:21;7.55;;;4.18;;
20731;SDS011;10527;52.124;5.196;2023-06-22T10:25:48;6.03;;;4.03;;
20731;SDS011;10527;52.124;5.196;2023-06-22T10:28:15;5.85;;;3.60;;
20731;SDS011;10527;52.124;5.196;2023-06-22T10:30:42;6.95;;;3.53;;
20731;SDS011;10527;52.124;5.196;2023-06-22T10:33:09;3.60;;;2.85;;
20731;SDS011;10527;52.124;5.196;2023-06-22T10:35:38;5.63;;;3.55;;
20731;SDS011;10527;52.124;5.196;2023-06-22T10:38:06;5.22;;;3.58;;
20731;SDS011;10527;52.124;5.196;2023-06-22T10:40:34;4.57;;;3.20;;
20731;SDS011;10527;52.124;5.196;2023-06-22T10:43:01;3.95;;;3.30;;
20731;SDS011;10527;52.124;5.196;2023-06-22T10:45:28;4.72;;;3.35;;
20731;SDS011;10527;52.124;5.196;2023-06-22T10:47:55;4.53;;;2.75;;
20731;SDS011;10527;52.124;5.196;2023-06-22T10:50:22;5.65;;;2.97;;
20731;SDS011;10527;52.124;5.196;2023-06-22T10:52:51;5.22;;;3.55;;
20731;SDS011;10527;52.124;5.196;2023-06-22T10:55:18;3.83;;;2.83;;
20731;SDS011;10527;52.124;5.196;2023-06-22T10:57:45;5.47;;;3.45;;
20731;SDS011;10527;52.124;5.196;2023-06-22T11:00:14;3.40;;;2.63;;
20731;SDS011;10527;52.124;5.196;2023-06-22T11:02:42;7.68;;;3.38;;
20731;SDS011;10527;52.124;5.196;2023-06-22T11:05:10;5.57;;;3.88;;
20731;SDS011;10527;52.124;5.196;2023-06-22T11:07:38;4.93;;;3.50;;
20731;SDS011;10527;52.124;5.196;2023-06-22T11:10:12;4.35;;;2.75;;
20731;SDS011;10527;52.124;5.196;2023-06-22T11:12:39;4.85;;;3.03;;
20731;SDS011;10527;52.124;5.196;2023-06-22T11:15:07;7.18;;;3.92;;
20731;SDS011;10527;52.124;5.196;2023-06-22T11:17:35;4.53;;;3.35;;
20731;SDS011;10527;52.124;5.196;2023-06-22T11:20:02;6.15;;;3.50;;
20731;SDS011;10527;52.124;5.196;2023-06-22T11:22:40;3.80;;;3.33;;
20731;SDS011;10527;52.124;5.196;2023-06-22T11:25:07;3.75;;;3.22;;
20731;SDS011;10527;52.124;5.196;2023-06-22T11:27:34;4.68;;;2.95;;
20731;SDS011;10527;52.124;5.196;2023-06-22T11:30:02;4.85;;;3.28;;
20731;SDS011;10527;52.124;5.196;2023-06-22T11:32:30;4.78;;;2.95;;
20731;SDS011;10527;52.124;5.196;2023-06-22T11:34:57;6.45;;;3.35;;
20731;SDS011;10527;52.124;5.196;2023-06-22T11:37:23;3.53;;;3.08;;
20731;SDS011;10527;52.124;5.196;2023-06-22T11:39:51;7.00;;;3.42;;
20731;SDS011;10527;52.124;5.196;2023-06-22T11:42:24;4.45;;;3.20;;
20731;SDS011;10527;52.124;5.196;2023-06-22T11:44:51;5.93;;;3.85;;
20731;SDS011;10527;52.124;5.196;2023-06-22T11:47:18;5.05;;;4.10;;
20731;SDS011;10527;52.124;5.196;2023-06-22T11:49:45;5.28;;;3.55;;
20731;SDS011;10527;52.124;5.196;2023-06-22T11:52:12;6.78;;;4.25;;
20731;SDS011;10527;52.124;5.196;2023-06-22T11:54:39;5.13;;;3.63;;
20731;SDS011;10527;52.124;5.196;2023-06-22T11:57:06;5.65;;;4.03;;
20731;SDS011;10527;52.124;5.196;2023-06-22T11:59:33;5.15;;;3.63;;
20731;SDS011;10527;52.124;5.196;2023-06-22T12:02:00;5.90;;;4.30;;
20731;SDS011;10527;52.124;5.196;2023-06-22T12:04:27;5.90;;;4.90;;
20731;SDS011;10527;52.124;5.196;2023-06-22T12:06:54;7.50;;;5.00;;
20731;SDS011;10527;52.124;5.196;2023-06-22T12:09:21;7.07;;;4.90;;
20731;SDS011;10527;52.124;5.196;2023-06-22T12:11:47;4.30;;;3.90;;
20731;SDS011;10527;52.124;5.196;2023-06-22T12:14:14;6.65;;;4.53;;
20731;SDS011;10527;52.124;5.196;2023-06-22T12:16:41;7.28;;;4.70;;
20731;SDS011;10527;52.124;5.196;2023-06-22T12:19:10;6.13;;;4.78;;
20731;SDS011;10527;52.124;5.196;2023-06-22T12:21:37;5.85;;;4.90;;
20731;SDS011;10527;52.124;5.196;2023-06-22T12:24:07;8.00;;;5.28;;
20731;SDS011;10527;52.124;5.196;2023-06-22T12:26:35;6.25;;;4.78;;
20731;SDS011;10527;52.124;5.196;2023-06-22T12:29:02;8.05;;;5.28;;
20731;SDS011;10527;52.124;5.196;2023-06-22T12:31:29;5.97;;;4.68;;
20731;SDS011;10527;52.124;5.196;2023-06-22T12:33:56;6.40;;;4.38;;
20731;SDS011;10527;52.124;5.196;2023-06-22T12:36:23;6.65;;;4.93;;
20731;SDS011;10527;52.124;5.196;2023-06-22T12:38:50;6.40;;;5.25;;
20731;SDS011;10527;52.124;5.196;2023-06-22T12:41:19;6.50;;;4.53;;
20731;SDS011;10527;52.124;5.196;2023-06-22T12:43:46;7.68;;;5.22;;
20731;SDS011;10527;52.124;5.196;2023-06-22T12:46:13;7.93;;;5.57;;
20731;SDS011;10527;52.124;5.196;2023-06-22T12:48:40;7.40;;;5.65;;
20731;SDS011;10527;52.124;5.196;2023-06-22T12:51:08;6.85;;;5.32;;
20731;SDS011;10527;52.124;5.196;2023-06-22T12:53:36;6.57;;;5.45;;
20731;SDS011;10527;52.124;5.196;2023-06-22T12:56:03;7.95;;;5.00;;
20731;SDS011;10527;52.124;5.196;2023-06-22T12:58:30;6.75;;;5.85;;
20731;SDS011;10527;52.124;5.196;2023-06-22T13:00:59;8.55;;;5.90;;
20731;SDS011;10527;52.124;5.196;2023-06-22T13:03:26;8.80;;;5.70;;
20731;SDS011;10527;52.124;5.196;2023-06-22T13:05:54;6.38;;;5.68;;
20731;SDS011;10527;52.124;5.196;2023-06-22T13:08:23;9.05;;;7.07;;
20731;SDS011;10527;52.124;5.196;2023-06-22T13:11:10;8.05;;;6.22;;
20731;SDS011;10527;52.124;5.196;2023-06-22T13:13:36;10.10;;;6.00;;
20731;SDS011;10527;52.124;5.196;2023-06-22T13:16:05;9.23;;;6.55;;
20731;SDS011;10527;52.124;5.196;2023-06-22T13:18:33;7.85;;;5.95;;
20731;SDS011;10527;52.124;5.196;2023-06-22T13:21:04;8.82;;;7.00;;
20731;SDS011;10527;52.124;5.196;2023-06-22T13:23:34;10.02;;;6.60;;
20731;SDS011;10527;52.124;5.196;2023-06-22T13:26:01;9.23;;;6.38;;
20731;SDS011;10527;52.124;5.196;2023-06-22T13:28:29;7.35;;;6.60;;
20731;SDS011;10527;52.124;5.196;2023-06-22T13:30:56;10.35;;;7.30;;
20731;SDS011;10527;52.124;5.196;2023-06-22T13:33:24;7.55;;;6.47;;
20731;SDS011;10527;52.124;5.196;2023-06-22T13:35:51;8.75;;;6.65;;
20731;SDS011;10527;52.124;5.196;2023-06-22T13:38:18;9.40;;;6.78;;
20731;SDS011;10527;52.124;5.196;2023-06-22T13:40:45;10.70;;;7.30;;
20731;SDS011;10527;52.124;5.196;2023-06-22T13:43:13;9.38;;;7.05;;
20731;SDS011;10527;52.124;5.196;2023-06-22T13:45:41;11.25;;;7.43;;
20731;SDS011;10527;52.124;5.196;2023-06-22T13:48:09;7.45;;;6.30;;
20731;SDS011;10527;52.124;5.196;2023-06-22T13:50:36;8.80;;;6.63;;
20731;SDS011;10527;52.124;5.196;2023-06-22T13:53:03;7.93;;;6.45;;
20731;SDS011;10527;52.124;5.196;2023-06-22T13:55:32;8.52;;;7.10;;
20731;SDS011;10527;52.124;5.196;2023-06-22T13:57:59;10.55;;;7.38;;
20731;SDS011;10527;52.124;5.196;2023-06-22T14:00:25;8.85;;;7.35;;
20731;SDS011;10527;52.124;5.196;2023-06-22T14:03:05;8.95;;;7.45;;
20731;SDS011;10527;52.124;5.196;2023-06-22T14:05:32;9.60;;;8.48;;
20731;SDS011;10527;52.124;5.196;2023-06-22T14:07:59;9.05;;;7.38;;
20731;SDS011;10527;52.124;5.196;2023-06-22T14:10:26;8.27;;;7.05;;
20731;SDS011;10527;52.124;5.196;2023-06-22T14:12:53;8.98;;;7.10;;
20731;SDS011;10527;52.124;5.196;2023-06-22T14:15:21;8.48;;;7.15;;
20731;SDS011;10527;52.124;5.196;2023-06-22T14:17:48;7.90;;;7.00;;
20731;SDS011;10527;52.124;5.196;2023-06-22T14:20:15;10.98;;;7.57;;
20731;SDS011;10527;52.124;5.196;2023-06-22T14:22:42;7.75;;;6.95;;
20731;SDS011;10527;52.124;5.196;2023-06-22T14:27:39;8.27;;;7.13;;
20731;SDS011;10527;52.124;5.196;2023-06-22T14:30:12;10.82;;;7.40;;
20731;SDS011;10527;52.124;5.196;2023-06-22T14:32:39;9.95;;;7.32;;
20731;SDS011;10527;52.124;5.196;2023-06-22T14:35:06;9.02;;;7.78;;
20731;SDS011;10527;52.124;5.196;2023-06-22T14:37:33;10.05;;;7.65;;
20731;SDS011;10527;52.124;5.196;2023-06-22T14:40:00;10.27;;;7.82;;
20731;SDS011;10527;52.124;5.196;2023-06-22T14:42:27;11.13;;;7.28;;
20731;SDS011;10527;52.124;5.196;2023-06-22T14:44:56;9.55;;;8.18;;
20731;SDS011;10527;52.124;5.196;2023-06-22T14:47:24;9.98;;;6.97;;
20731;SDS011;10527;52.124;5.196;2023-06-22T14:49:50;8.32;;;7.45;;
20731;SDS011;10527;52.124;5.196;2023-06-22T14:52:17;8.82;;;7.65;;
20731;SDS011;10527;52.124;5.196;2023-06-22T14:54:44;9.68;;;8.68;;